Cinque Terre — IUTV — position and weather

sailwx.info

Track history (hours):
 
Tides and Currents Weather Stations Pressure Air Temp Water Temp Dewpoint Dewpoint Depression Visibility Wind Speed Wind Dir Waves Ship Positions

Cinque Terre

Last reported at 2015-Jul-06 08:03 UTC. Time now 2015-Jul-06 11:21 UTC.
Position N 40°34' E 014°16'.

Length 15 m; draft 1 m.

Type: Passenger vessel. MMSI: 247208400.

Date/timePositionNaut miles runAvg speedWind from/ knotsBaromVisibWave heightAir tempDewpointWater temp
2015-Jul-06 08:03N 40°34' E 014°16'1 1.5
2015-Jul-06 07:33N 40°34' E 014°16'4 0.2
2015-Jul-05 16:32N 40°37' E 014°20'1 0.7
2015-Jul-05 15:33N 40°36' E 014°19'5 4.4
2015-Jul-05 14:26N 40°32' E 014°15'1 1.2
2015-Jul-05 13:33N 40°34' E 014°15'1 0.2
2015-Jul-05 08:24N 40°32' E 014°15'3 3.3
2015-Jul-05 07:33N 40°35' E 014°17'4 4.5
2015-Jul-05 06:33N 40°38' E 014°21'2 0.1
2015-Jul-04 16:32N 40°37' E 014°20'1 1.1
2015-Jul-04 15:33N 40°36' E 014°19'6 5.6
2015-Jul-04 14:33N 40°32' E 014°13'2 2.2
2015-Jul-04 13:33N 40°34' E 014°16'1 1.2
2015-Jul-04 12:33N 40°33' E 014°15'0 0.0
2015-Jul-04 11:33N 40°33' E 014°15'0 0.0
2015-Jul-04 10:33N 40°33' E 014°15'0 0.0
2015-Jul-04 09:20N 40°33' E 014°15'0 0.0
2015-Jul-04 08:33N 40°33' E 014°15'2 2.0
2015-Jul-04 07:33N 40°34' E 014°16'4 0.2
2015-Jul-03 16:17N 40°37' E 014°20'0 0.0
2015-Jul-03 15:33N 40°37' E 014°20'7 6.6
2015-Jul-03 14:33N 40°32' E 014°13'2 2.3
2015-Jul-03 13:33N 40°34' E 014°16'1 0.1
2015-Jul-03 08:08N 40°33' E 014°16'1 2.3
2015-Jul-03 07:33N 40°34' E 014°16'5 4.8
2015-Jul-03 06:26N 40°38' E 014°21'2 0.1
2015-Jul-02 16:16N 40°37' E 014°20'0 0.1
2015-Jul-02 15:33N 40°37' E 014°20'7 6.3
2015-Jul-02 14:30N 40°32' E 014°13'2 2.2
2015-Jul-02 13:33N 40°34' E 014°15'0 0.0
2015-Jul-02 07:33N 40°34' E 014°15'6 6.2
2015-Jul-02 06:33N 40°38' E 014°21'2 0.1
2015-Jul-01 16:26N 40°37' E 014°20'0 0.1
2015-Jul-01 15:33N 40°37' E 014°20'5 2.5
2015-Jul-01 13:33N 40°33' E 014°15'1 0.5
2015-Jul-01 12:06N 40°33' E 014°16'0 0.0
2015-Jul-01 11:33N 40°33' E 014°16'4 4.1
2015-Jul-01 10:34N 40°37' E 014°17'11 7.9
2015-Jul-01 09:10N 40°47' E 014°22'5 8.3
2015-Jul-01 08:33N 40°43' E 014°19'9 9.4
2015-Jul-01 07:33N 40°34' E 014°15'5 0.3
2015-Jun-30 16:08N 40°37' E 014°20'0 0.0
2015-Jun-30 15:33N 40°37' E 014°20'5 2.4
2015-Jun-30 13:33N 40°34' E 014°15'0 0.0
2015-Jun-30 07:33N 40°34' E 014°15'6 5.8
2015-Jun-30 06:29N 40°38' E 014°21'2 0.1
2015-Jun-29 15:34N 40°37' E 014°20'5 2.6
2015-Jun-29 13:33N 40°33' E 014°15'2 0.3
2015-Jun-29 07:29N 40°34' E 014°17'3 3.6
2015-Jun-29 06:33N 40°37' E 014°20'0 0.0
2015-Jun-28 15:32N 40°37' E 014°20'7 7.6
2015-Jun-28 14:33N 40°32' E 014°12'2 2.4
2015-Jun-28 13:33N 40°33' E 014°15'2 0.3
2015-Jun-28 07:32N 40°34' E 014°16'4 0.2
2015-Jun-27 16:28N 40°37' E 014°20'1 0.8
2015-Jun-27 15:33N 40°37' E 014°20'6 6.0
2015-Jun-27 14:31N 40°32' E 014°15'1 1.1
2015-Jun-27 13:33N 40°34' E 014°15'1 0.1
2015-Jun-27 07:33N 40°34' E 014°16'6 5.3
2015-Jun-27 06:26N 40°38' E 014°21'2 0.1
2015-Jun-26 16:33N 40°37' E 014°20'0 0.0
2015-Jun-26 15:28N 40°37' E 014°20'5 2.6
2015-Jun-26 13:33N 40°33' E 014°15'  
Track history (hours):
 
Tides and Currents Weather Stations Pressure Air Temp Water Temp Dewpoint Dewpoint Depression Visibility Wind Speed Wind Dir Waves Ship Positions

Cinque Terre

Last reported at 2015-Jul-06 08:03 UTC. Time now 2015-Jul-06 11:21 UTC.
Position N 40°34' E 014°16'.

Length 15 m; draft 1 m.

Type: Passenger vessel. MMSI: 247208400.

Date/timePositionNaut miles runAvg speedWind from/ knotsBaromVisibWave heightAir tempDewpointWater temp
2015-Jul-06 08:03N 40°34' E 014°16'1 1.5
2015-Jul-06 07:33N 40°34' E 014°16'4 0.2
2015-Jul-05 16:32N 40°37' E 014°20'1 0.7
2015-Jul-05 15:33N 40°36' E 014°19'5 4.4
2015-Jul-05 14:26N 40°32' E 014°15'1 1.2
2015-Jul-05 13:33N 40°34' E 014°15'1 0.2
2015-Jul-05 08:24N 40°32' E 014°15'3 3.3
2015-Jul-05 07:33N 40°35' E 014°17'4 4.5
2015-Jul-05 06:33N 40°38' E 014°21'2 0.1
2015-Jul-04 16:32N 40°37' E 014°20'1 1.1
2015-Jul-04 15:33N 40°36' E 014°19'6 5.6
2015-Jul-04 14:33N 40°32' E 014°13'2 2.2
2015-Jul-04 13:33N 40°34' E 014°16'1 1.2
2015-Jul-04 12:33N 40°33' E 014°15'0 0.0
2015-Jul-04 11:33N 40°33' E 014°15'0 0.0
2015-Jul-04 10:33N 40°33' E 014°15'0 0.0
2015-Jul-04 09:20N 40°33' E 014°15'0 0.0
2015-Jul-04 08:33N 40°33' E 014°15'2 2.0
2015-Jul-04 07:33N 40°34' E 014°16'4 0.2
2015-Jul-03 16:17N 40°37' E 014°20'0 0.0
2015-Jul-03 15:33N 40°37' E 014°20'7 6.6
2015-Jul-03 14:33N 40°32' E 014°13'2 2.3
2015-Jul-03 13:33N 40°34' E 014°16'1 0.1
2015-Jul-03 08:08N 40°33' E 014°16'1 2.3
2015-Jul-03 07:33N 40°34' E 014°16'5 4.8
2015-Jul-03 06:26N 40°38' E 014°21'2 0.1
2015-Jul-02 16:16N 40°37' E 014°20'0 0.1
2015-Jul-02 15:33N 40°37' E 014°20'7 6.3
2015-Jul-02 14:30N 40°32' E 014°13'2 2.2
2015-Jul-02 13:33N 40°34' E 014°15'0 0.0
2015-Jul-02 07:33N 40°34' E 014°15'6 6.2
2015-Jul-02 06:33N 40°38' E 014°21'2 0.1
2015-Jul-01 16:26N 40°37' E 014°20'0 0.1
2015-Jul-01 15:33N 40°37' E 014°20'5 2.5
2015-Jul-01 13:33N 40°33' E 014°15'1 0.5
2015-Jul-01 12:06N 40°33' E 014°16'0 0.0
2015-Jul-01 11:33N 40°33' E 014°16'4 4.1
2015-Jul-01 10:34N 40°37' E 014°17'11 7.9
2015-Jul-01 09:10N 40°47' E 014°22'5 8.3
2015-Jul-01 08:33N 40°43' E 014°19'9 9.4
2015-Jul-01 07:33N 40°34' E 014°15'5 0.3
2015-Jun-30 16:08N 40°37' E 014°20'0 0.0
2015-Jun-30 15:33N 40°37' E 014°20'5 2.4
2015-Jun-30 13:33N 40°34' E 014°15'0 0.0
2015-Jun-30 07:33N 40°34' E 014°15'6 5.8
2015-Jun-30 06:29N 40°38' E 014°21'2 0.1
2015-Jun-29 15:34N 40°37' E 014°20'5 2.6
2015-Jun-29 13:33N 40°33' E 014°15'2 0.3
2015-Jun-29 07:29N 40°34' E 014°17'3 3.6
2015-Jun-29 06:33N 40°37' E 014°20'0 0.0
2015-Jun-28 15:32N 40°37' E 014°20'7 7.6
2015-Jun-28 14:33N 40°32' E 014°12'2 2.4
2015-Jun-28 13:33N 40°33' E 014°15'2 0.3
2015-Jun-28 07:32N 40°34' E 014°16'4 0.2
2015-Jun-27 16:28N 40°37' E 014°20'1 0.8
2015-Jun-27 15:33N 40°37' E 014°20'6 6.0
2015-Jun-27 14:31N 40°32' E 014°15'1 1.1
2015-Jun-27 13:33N 40°34' E 014°15'1 0.1
2015-Jun-27 07:33N 40°34' E 014°16'6 5.3
2015-Jun-27 06:26N 40°38' E 014°21'2 0.1
2015-Jun-26 16:33N 40°37' E 014°20'0 0.0
2015-Jun-26 15:28N 40°37' E 014°20'5 2.6
2015-Jun-26 13:33N 40°33' E 014°15'  

Dump ship's entire track history